createdAt,value
2018-03-21T00:01:42.430Z,9.30
2018-03-21T00:04:09.983Z,8.33
2018-03-21T00:06:37.513Z,13.47
2018-03-21T00:09:05.042Z,6.90
2018-03-21T00:11:32.610Z,9.30
2018-03-21T00:14:00.149Z,5.03
2018-03-21T00:16:27.698Z,7.17
2018-03-21T00:18:55.239Z,7.03
2018-03-21T00:21:22.805Z,4.77
2018-03-21T00:23:50.368Z,12.97
2018-03-21T00:26:17.903Z,8.50
2018-03-21T00:28:46.201Z,9.33
2018-03-21T00:31:13.849Z,10.63
2018-03-21T00:33:41.390Z,6.77
2018-03-21T00:36:09.700Z,7.93
2018-03-21T00:38:37.228Z,5.20
2018-03-21T00:41:04.916Z,7.90
2018-03-21T00:43:32.439Z,11.93
2018-03-21T00:46:00.839Z,10.67
2018-03-21T00:48:28.369Z,6.63
2018-03-21T00:50:55.942Z,9.93
2018-03-21T00:53:23.494Z,7.07
2018-03-21T00:55:51.102Z,7.80
2018-03-21T00:58:18.672Z,10.57
2018-03-21T01:00:46.405Z,9.60
2018-03-21T01:03:13.941Z,5.37
2018-03-21T01:05:42.261Z,7.33
2018-03-21T01:08:09.794Z,8.47
2018-03-21T01:10:37.348Z,12.23
2018-03-21T01:13:05.626Z,10.30
2018-03-21T01:15:33.209Z,12.17
2018-03-21T01:18:00.765Z,12.17
2018-03-21T01:20:28.473Z,12.90
2018-03-21T01:22:56.079Z,13.67
2018-03-21T01:25:23.834Z,12.33
2018-03-21T01:27:51.494Z,8.00
2018-03-21T01:30:19.046Z,8.33
2018-03-21T01:32:47.508Z,5.87
2018-03-21T01:35:15.926Z,7.03
2018-03-21T01:37:43.466Z,8.53
2018-03-21T01:40:11.059Z,4.80
2018-03-21T01:42:38.696Z,10.57
2018-03-21T01:45:06.249Z,14.93
2018-03-21T01:47:33.790Z,8.57
2018-03-21T01:50:02.118Z,6.30
2018-03-21T01:52:29.783Z,5.63
2018-03-21T01:54:57.312Z,7.60
2018-03-21T01:57:25.085Z,8.27
2018-03-21T01:59:52.741Z,7.93
2018-03-21T02:02:20.282Z,5.43
2018-03-21T02:04:48.588Z,5.80
2018-03-21T02:07:16.148Z,9.53
2018-03-21T02:09:43.680Z,5.53
2018-03-21T02:12:11.969Z,7.93
2018-03-21T02:14:40.016Z,6.57
2018-03-21T02:17:08.314Z,9.47
2018-03-21T02:19:35.978Z,9.17
2018-03-21T02:22:03.546Z,6.80
2018-03-21T02:24:31.071Z,6.23
2018-03-21T02:26:59.371Z,10.30
2018-03-21T02:29:27.149Z,8.17
2018-03-21T02:31:54.689Z,13.07
2018-03-21T02:34:22.254Z,9.50
2018-03-21T02:36:49.790Z,8.03
2018-03-21T02:39:18.081Z,5.73
2018-03-21T02:41:45.671Z,9.53
2018-03-21T02:44:13.205Z,6.47
2018-03-21T02:46:40.768Z,13.50
2018-03-21T02:49:08.316Z,5.57
2018-03-21T02:51:35.849Z,5.07
2018-03-21T02:54:04.201Z,11.50
2018-03-21T02:56:31.770Z,11.97
2018-03-21T02:58:59.390Z,16.03
2018-03-21T03:01:26.922Z,14.97
2018-03-21T03:03:54.609Z,21.83
2018-03-21T03:06:22.260Z,18.50
2018-03-21T03:08:49.794Z,29.00
2018-03-21T03:11:18.168Z,62.73
2018-03-21T03:13:45.770Z,45.60
2018-03-21T03:16:13.595Z,46.97
2018-03-21T03:18:42.042Z,32.43
2018-03-21T03:21:09.612Z,18.67
2018-03-21T03:23:38.652Z,34.80
2018-03-21T03:26:06.415Z,23.47
2018-03-21T03:28:33.944Z,21.77
2018-03-21T03:31:02.269Z,25.57
2018-03-21T03:33:29.808Z,20.23
2018-03-21T03:35:57.349Z,15.33
2018-03-21T03:38:25.662Z,15.37
2018-03-21T03:40:53.483Z,22.10
2018-03-21T03:43:21.790Z,18.60
2018-03-21T03:45:49.538Z,19.70
2018-03-21T03:48:17.191Z,26.80
2018-03-21T03:50:44.891Z,44.80
2018-03-21T03:53:12.530Z,15.77
2018-03-21T03:55:40.072Z,36.50
2018-03-21T03:58:08.378Z,34.70
2018-03-21T04:00:35.895Z,16.07
2018-03-21T04:03:03.464Z,52.30
2018-03-21T04:05:31.040Z,15.87
2018-03-21T04:07:58.643Z,23.77
2018-03-21T04:10:26.183Z,19.27
2018-03-21T04:12:53.946Z,27.83
2018-03-21T04:15:21.469Z,23.53
2018-03-21T04:17:49.031Z,21.67
2018-03-21T04:20:16.627Z,37.70
2018-03-21T04:22:44.181Z,27.33
2018-03-21T04:25:11.733Z,29.07
2018-03-21T04:27:39.268Z,19.13
2018-03-21T04:30:07.695Z,56.37
2018-03-21T04:32:35.215Z,26.90
2018-03-21T04:35:02.759Z,43.60
2018-03-21T04:37:30.328Z,89.27
2018-03-21T04:39:58.007Z,39.20
2018-03-21T04:42:25.639Z,33.13
2018-03-21T04:44:53.966Z,35.27
2018-03-21T04:47:21.551Z,19.13
2018-03-21T04:49:49.078Z,28.77
2018-03-21T04:52:16.813Z,22.70
2018-03-21T04:54:44.328Z,33.27
2018-03-21T04:57:11.962Z,50.83
2018-03-21T04:59:39.499Z,28.03
2018-03-21T05:02:07.052Z,32.73
2018-03-21T05:04:34.797Z,42.93
2018-03-21T05:07:03.220Z,41.27
2018-03-21T05:09:30.780Z,50.50
2018-03-21T05:11:58.303Z,30.33
2018-03-21T05:14:25.870Z,10.27
2018-03-21T05:16:53.523Z,22.43
2018-03-21T05:19:21.806Z,33.97
2018-03-21T05:21:49.412Z,61.37
2018-03-21T05:24:16.999Z,22.30
2018-03-21T05:26:44.684Z,50.13
2018-03-21T05:29:12.211Z,11.27
2018-03-21T05:31:39.768Z,33.30
2018-03-21T05:34:07.545Z,29.90
2018-03-21T05:36:35.836Z,69.07
2018-03-21T05:39:03.387Z,52.80
2018-03-21T05:41:30.968Z,62.33
2018-03-21T05:43:58.724Z,63.93
2018-03-21T05:46:26.294Z,37.33
2018-03-21T05:48:53.831Z,48.47
2018-03-21T05:51:22.147Z,43.63
2018-03-21T05:53:49.884Z,42.50
2018-03-21T05:56:17.596Z,41.87
2018-03-21T05:58:45.148Z,18.97
2018-03-21T06:01:12.686Z,43.57
2018-03-21T06:03:40.221Z,47.17
2018-03-21T06:06:08.014Z,30.70
2018-03-21T06:08:35.558Z,43.53
2018-03-21T06:11:03.336Z,35.33
2018-03-21T06:13:30.974Z,66.40
2018-03-21T06:15:58.519Z,36.83
2018-03-21T06:18:26.947Z,44.30
2018-03-21T06:20:54.567Z,35.80
2018-03-21T06:23:22.127Z,65.90
2018-03-21T06:25:49.666Z,74.77
2018-03-21T06:28:17.317Z,40.73
2018-03-21T06:30:44.926Z,44.53
2018-03-21T06:33:12.450Z,47.63
2018-03-21T06:35:40.009Z,48.60
2018-03-21T06:38:08.545Z,28.53
2018-03-21T06:40:36.130Z,33.90
2018-03-21T06:43:04.441Z,18.40
2018-03-21T06:45:31.989Z,33.13
2018-03-21T06:47:59.539Z,50.60
2018-03-21T06:50:27.866Z,45.50
2018-03-21T06:52:55.472Z,17.17
2018-03-21T06:55:23.024Z,36.73
2018-03-21T06:57:50.660Z,56.40
2018-03-21T07:00:18.180Z,32.87
2018-03-21T07:02:46.063Z,37.37
2018-03-21T07:05:13.651Z,27.13
2018-03-21T07:07:41.177Z,29.23
2018-03-21T07:10:08.735Z,46.67
2018-03-21T07:12:36.403Z,42.20
2018-03-21T07:15:15.849Z,26.30
2018-03-21T07:17:43.573Z,36.53
2018-03-21T07:20:11.871Z,23.93
2018-03-21T07:22:39.399Z,19.80
2018-03-21T07:25:07.004Z,43.70
2018-03-21T07:27:34.784Z,17.93
2018-03-21T07:30:02.403Z,20.20
2018-03-21T07:32:29.961Z,21.07
2018-03-21T07:34:57.479Z,23.07
2018-03-21T07:37:25.025Z,28.73
2018-03-21T07:39:52.737Z,26.97
2018-03-21T07:42:21.044Z,22.17
2018-03-21T07:44:48.640Z,33.53
2018-03-21T07:47:16.239Z,31.07
2018-03-21T07:49:43.782Z,24.37
2018-03-21T07:52:12.100Z,25.10
2018-03-21T07:54:39.649Z,18.27
2018-03-21T07:57:07.192Z,29.90
2018-03-21T07:59:34.775Z,25.87
2018-03-21T08:02:02.325Z,30.57
2018-03-21T08:04:32.644Z,24.30
2018-03-21T08:07:00.183Z,23.27
2018-03-21T08:09:27.841Z,39.97
2018-03-21T08:11:55.567Z,50.80
2018-03-21T08:14:23.111Z,24.67
2018-03-21T08:16:50.645Z,37.90
2018-03-21T08:19:18.206Z,25.93
2018-03-21T08:21:45.720Z,24.27
2018-03-21T08:24:13.391Z,31.23
2018-03-21T08:26:40.981Z,35.47
2018-03-21T08:29:08.584Z,31.43
2018-03-21T08:31:36.224Z,31.23
2018-03-21T08:34:03.873Z,19.87
2018-03-21T08:36:31.420Z,30.13
2018-03-21T08:38:58.985Z,23.00
2018-03-21T08:41:26.521Z,22.83
2018-03-21T08:43:54.069Z,25.33
2018-03-21T08:46:21.612Z,24.13
2018-03-21T08:48:49.218Z,20.07
2018-03-21T08:51:16.824Z,25.43
2018-03-21T08:53:44.451Z,21.50
2018-03-21T08:56:11.985Z,26.43
2018-03-21T08:58:39.535Z,22.67
2018-03-21T09:01:07.821Z,31.80
2018-03-21T09:03:35.335Z,22.23
2018-03-21T09:06:02.883Z,29.37
2018-03-21T09:08:31.381Z,26.17
2018-03-21T09:10:58.969Z,29.30
2018-03-21T09:13:26.673Z,22.13
2018-03-21T09:15:54.238Z,24.97
2018-03-21T09:18:21.942Z,21.60
2018-03-21T09:20:49.479Z,23.73
2018-03-21T09:23:17.018Z,23.43
2018-03-21T09:25:44.826Z,22.30
2018-03-21T09:28:13.118Z,19.87
2018-03-21T09:30:40.878Z,27.50
2018-03-21T09:33:08.563Z,20.27
2018-03-21T09:35:36.086Z,22.43
2018-03-21T09:38:04.375Z,22.33
2018-03-21T09:40:31.916Z,25.27
2018-03-21T09:42:59.440Z,23.30
2018-03-21T09:45:27.001Z,31.10
2018-03-21T09:47:54.552Z,31.47
2018-03-21T09:50:22.190Z,28.73
2018-03-21T09:52:49.731Z,32.07
2018-03-21T09:55:17.274Z,32.37
2018-03-21T09:57:44.811Z,35.20
2018-03-21T10:00:12.340Z,25.90
2018-03-21T10:02:40.296Z,27.83
2018-03-21T10:05:07.839Z,22.73
2018-03-21T10:07:35.413Z,22.80
2018-03-21T10:10:03.127Z,24.73
2018-03-21T10:12:30.709Z,18.73
2018-03-21T10:14:58.359Z,20.83
2018-03-21T10:17:25.934Z,19.73
2018-03-21T10:19:54.215Z,17.70
2018-03-21T10:22:21.880Z,18.60
2018-03-21T10:24:49.415Z,14.17
2018-03-21T10:27:16.988Z,18.07
2018-03-21T10:29:44.553Z,15.50
2018-03-21T10:32:12.091Z,15.63
2018-03-21T10:34:40.396Z,15.27
2018-03-21T10:37:07.962Z,16.03
2018-03-21T10:39:35.479Z,18.13
2018-03-21T10:42:03.769Z,16.70
2018-03-21T10:44:32.089Z,14.83
2018-03-21T10:46:59.641Z,13.57
2018-03-21T10:49:27.293Z,14.93
2018-03-21T10:51:54.815Z,16.23
2018-03-21T10:54:23.149Z,17.90
2018-03-21T10:56:50.873Z,13.33
2018-03-21T10:59:18.456Z,18.37
2018-03-21T11:01:45.991Z,18.33
2018-03-21T11:04:13.586Z,18.10
2018-03-21T11:06:41.127Z,16.57
2018-03-21T11:09:08.774Z,17.27
2018-03-21T11:11:36.443Z,14.13
2018-03-21T11:14:04.816Z,16.00
2018-03-21T11:16:32.331Z,14.27
2018-03-21T11:19:00.084Z,16.13
2018-03-21T11:21:27.749Z,17.07
2018-03-21T11:23:55.530Z,14.73
2018-03-21T11:26:23.138Z,14.40
2018-03-21T11:28:50.904Z,14.77
2018-03-21T11:31:18.646Z,12.10
2018-03-21T11:33:46.159Z,17.13
2018-03-21T11:36:13.700Z,11.63
2018-03-21T11:38:41.222Z,12.57
2018-03-21T11:41:08.787Z,13.77
2018-03-21T11:43:36.321Z,9.70
2018-03-21T11:46:04.806Z,11.03
2018-03-21T11:48:33.129Z,14.83
2018-03-21T11:51:00.656Z,12.53
2018-03-21T11:53:28.187Z,8.27
2018-03-21T11:55:56.498Z,15.27
2018-03-21T11:58:24.215Z,9.03
2018-03-21T12:00:51.784Z,12.20
2018-03-21T12:03:20.115Z,10.70
2018-03-21T12:05:47.652Z,15.07
2018-03-21T12:08:15.186Z,10.73
2018-03-21T12:10:43.478Z,14.70
2018-03-21T12:13:11.080Z,15.27
2018-03-21T12:15:38.644Z,15.53
2018-03-21T12:18:06.201Z,12.43
2018-03-21T12:20:33.847Z,10.40
2018-03-21T12:23:01.383Z,9.83
2018-03-21T12:25:28.943Z,12.13
2018-03-21T12:27:56.475Z,10.83
2018-03-21T12:30:24.769Z,12.40
2018-03-21T12:32:52.442Z,12.53
2018-03-21T12:35:19.980Z,12.30
2018-03-21T12:37:47.561Z,8.63
2018-03-21T12:40:15.189Z,7.33
2018-03-21T12:42:43.542Z,10.00
2018-03-21T12:45:11.082Z,7.83
2018-03-21T12:47:38.598Z,13.70
2018-03-21T12:50:07.013Z,8.13
2018-03-21T12:52:34.578Z,10.67
2018-03-21T12:55:02.329Z,13.27
2018-03-21T12:57:29.917Z,12.80
2018-03-21T12:59:57.511Z,10.90
2018-03-21T13:02:25.844Z,13.13
2018-03-21T13:04:53.408Z,9.77
2018-03-21T13:07:21.006Z,10.43
2018-03-21T13:09:48.549Z,16.07
2018-03-21T13:12:16.078Z,10.63
2018-03-21T13:14:43.718Z,12.87
2018-03-21T13:17:11.275Z,12.10
2018-03-21T13:19:38.941Z,12.47
2018-03-21T13:22:06.494Z,9.53
2018-03-21T13:24:34.052Z,11.40
2018-03-21T13:27:01.578Z,9.60
2018-03-21T13:29:29.876Z,11.03
2018-03-21T13:31:57.500Z,8.67
2018-03-21T13:34:25.003Z,9.27
2018-03-21T13:36:52.569Z,9.77
2018-03-21T13:39:20.089Z,7.00
2018-03-21T13:41:48.641Z,6.50
2018-03-21T13:44:16.281Z,8.27
2018-03-21T13:46:43.835Z,10.87
2018-03-21T13:49:11.428Z,12.93
2018-03-21T13:51:38.983Z,11.87
2018-03-21T13:54:06.514Z,11.93
2018-03-21T13:56:34.265Z,7.63
2018-03-21T13:59:01.793Z,5.73
2018-03-21T14:01:30.763Z,10.30
2018-03-21T14:03:58.321Z,7.97
2018-03-21T14:06:25.926Z,7.40
2018-03-21T14:08:53.460Z,10.13
2018-03-21T14:11:21.744Z,5.57
2018-03-21T14:13:50.051Z,10.63
2018-03-21T14:16:17.671Z,6.20
2018-03-21T14:18:45.220Z,7.23
2018-03-21T14:21:12.745Z,7.57
2018-03-21T14:23:40.276Z,6.47
2018-03-21T14:26:07.808Z,7.97
2018-03-21T14:28:36.122Z,6.87
2018-03-21T14:31:03.716Z,10.00
2018-03-21T14:33:31.428Z,8.30
2018-03-21T14:35:59.005Z,5.53
2018-03-21T14:38:26.545Z,4.60
2018-03-21T14:40:54.109Z,7.47
2018-03-21T14:43:21.647Z,3.87
2018-03-21T14:45:49.971Z,7.63
2018-03-21T14:48:17.792Z,4.17
2018-03-21T14:50:46.120Z,5.33
2018-03-21T14:53:13.664Z,8.13
2018-03-21T14:55:41.202Z,6.70
2018-03-21T14:58:08.826Z,3.13
2018-03-21T15:00:36.344Z,4.33
2018-03-21T15:03:03.943Z,5.27
2018-03-21T15:05:31.539Z,6.77
2018-03-21T15:07:59.082Z,4.27
2018-03-21T15:10:27.375Z,3.73
2018-03-21T15:12:54.906Z,4.10
2018-03-21T15:15:22.495Z,5.97
2018-03-21T15:17:50.028Z,4.20
2018-03-21T15:20:17.560Z,5.17
2018-03-21T15:22:45.222Z,5.67
2018-03-21T15:25:12.835Z,6.27
2018-03-21T15:27:40.387Z,8.40
2018-03-21T15:30:07.966Z,4.40
2018-03-21T15:32:35.491Z,5.67
2018-03-21T15:35:03.783Z,8.20
2018-03-21T15:37:31.357Z,6.03
2018-03-21T15:39:58.901Z,8.73
2018-03-21T15:42:26.483Z,2.77
2018-03-21T15:44:54.047Z,4.87
2018-03-21T15:47:21.606Z,8.87
2018-03-21T15:49:49.151Z,5.13
2018-03-21T15:52:16.738Z,6.37
2018-03-21T15:54:44.413Z,6.60
2018-03-21T15:57:12.059Z,8.77
2018-03-21T15:59:39.583Z,10.63
2018-03-21T16:02:07.192Z,8.97
2018-03-21T16:04:34.719Z,7.23
2018-03-21T16:07:02.383Z,7.47
2018-03-21T16:09:29.934Z,8.97
2018-03-21T16:11:57.756Z,6.67
2018-03-21T16:14:25.340Z,10.63
2018-03-21T16:16:52.888Z,8.10
2018-03-21T16:19:20.410Z,4.37
2018-03-21T16:21:48.047Z,8.13
2018-03-21T16:24:15.559Z,14.20
2018-03-21T16:26:43.884Z,7.80
2018-03-21T16:29:11.635Z,8.40
2018-03-21T16:31:39.198Z,12.87
2018-03-21T16:34:06.736Z,10.97
2018-03-21T16:36:34.392Z,9.90
2018-03-21T16:39:02.056Z,12.30
2018-03-21T16:41:29.651Z,12.10
2018-03-21T16:43:57.317Z,8.03
2018-03-21T16:46:24.834Z,9.57
2018-03-21T16:48:52.715Z,8.53
2018-03-21T16:51:20.279Z,7.33
2018-03-21T16:53:47.818Z,11.90
2018-03-21T16:56:15.351Z,8.07
2018-03-21T16:58:43.774Z,10.97
2018-03-21T17:01:11.279Z,7.97
2018-03-21T17:03:38.918Z,11.63
2018-03-21T17:06:06.840Z,10.63
2018-03-21T17:08:35.274Z,7.83
2018-03-21T17:11:02.908Z,9.30
2018-03-21T17:16:04.407Z,7.60
2018-03-21T17:18:31.982Z,11.07
2018-03-21T17:20:59.553Z,7.80
2018-03-21T17:23:27.986Z,6.37
2018-03-21T17:25:55.525Z,9.77
2018-03-21T17:28:23.120Z,7.10
2018-03-21T17:30:50.726Z,7.47
2018-03-21T17:33:18.266Z,9.13
2018-03-21T17:35:46.590Z,9.37
2018-03-21T17:38:14.415Z,12.57
2018-03-21T17:40:42.719Z,8.67
2018-03-21T17:43:10.242Z,7.13
2018-03-21T17:45:37.783Z,9.07
2018-03-21T17:48:05.337Z,6.80
2018-03-21T17:50:32.964Z,8.57
2018-03-21T17:53:00.524Z,13.43
2018-03-21T17:55:28.053Z,11.83
2018-03-21T17:57:55.603Z,5.70
2018-03-21T18:00:23.150Z,8.83
2018-03-21T18:02:51.482Z,12.20
2018-03-21T18:05:19.008Z,8.57
2018-03-21T18:07:46.668Z,13.07
2018-03-21T18:10:14.213Z,7.87
2018-03-21T18:12:43.380Z,12.90
2018-03-21T18:15:10.906Z,11.97
2018-03-21T18:17:38.561Z,12.27
2018-03-21T18:20:06.234Z,9.30
2018-03-21T18:22:33.899Z,11.30
2018-03-21T18:25:01.583Z,7.93
2018-03-21T18:27:29.251Z,6.67
2018-03-21T18:29:58.013Z,10.60
2018-03-21T18:32:25.591Z,10.07
2018-03-21T18:34:53.113Z,10.50
2018-03-21T18:37:20.698Z,13.23
2018-03-21T18:39:48.350Z,15.43
2018-03-21T18:42:15.903Z,10.27
2018-03-21T18:44:43.487Z,13.37
2018-03-21T18:47:11.153Z,7.20
2018-03-21T18:49:38.808Z,8.47
2018-03-21T18:52:06.387Z,10.13
2018-03-21T18:54:33.946Z,10.27
2018-03-21T18:57:01.553Z,9.60
2018-03-21T18:59:29.116Z,12.50
2018-03-21T19:01:56.660Z,10.23
2018-03-21T19:04:24.297Z,9.73
2018-03-21T19:06:52.014Z,15.70
2018-03-21T19:09:19.654Z,13.47
2018-03-21T19:11:47.295Z,13.57
2018-03-21T19:14:14.861Z,14.83
2018-03-21T19:16:42.437Z,10.17
2018-03-21T19:19:10.521Z,11.00
2018-03-21T19:21:38.168Z,14.07
2018-03-21T19:24:06.296Z,12.33
2018-03-21T19:26:33.854Z,9.07
2018-03-21T19:29:01.443Z,12.00
2018-03-21T19:31:29.046Z,11.83
2018-03-21T19:33:57.333Z,12.53
2018-03-21T19:36:24.909Z,15.53
2018-03-21T19:38:53.239Z,9.30
2018-03-21T19:41:20.836Z,15.90
2018-03-21T19:43:48.429Z,13.27
2018-03-21T19:46:16.001Z,15.20
2018-03-21T19:48:43.671Z,10.37
2018-03-21T19:51:11.232Z,12.77
2018-03-21T19:53:38.845Z,15.20
2018-03-21T19:56:07.525Z,14.37
2018-03-21T19:58:35.913Z,13.50
2018-03-21T20:01:03.661Z,11.10
2018-03-21T20:03:31.242Z,9.13
2018-03-21T20:05:59.602Z,9.47
2018-03-21T20:08:27.217Z,14.17
2018-03-21T20:10:54.837Z,15.10
2018-03-21T20:13:22.432Z,14.37
2018-03-21T20:15:50.202Z,15.03
2018-03-21T20:18:18.015Z,12.77
2018-03-21T20:20:45.624Z,12.67
2018-03-21T20:23:13.211Z,11.43
2018-03-21T20:25:40.811Z,11.20
2018-03-21T20:28:08.386Z,8.57
2018-03-21T20:30:36.062Z,9.03
2018-03-21T20:33:03.828Z,13.20
2018-03-21T20:35:31.471Z,9.83
2018-03-21T20:37:59.378Z,10.00
2018-03-21T20:40:27.224Z,11.23
2018-03-21T20:42:54.790Z,10.50
2018-03-21T20:45:23.281Z,9.20
2018-03-21T20:47:50.831Z,6.37
2018-03-21T20:50:18.429Z,8.13
2018-03-21T20:52:45.996Z,10.30
2018-03-21T20:55:13.646Z,8.23
2018-03-21T20:57:41.213Z,9.47
2018-03-21T21:00:09.576Z,13.90
2018-03-21T21:02:37.510Z,7.60
2018-03-21T21:05:05.104Z,8.07
2018-03-21T21:07:33.722Z,10.97
2018-03-21T21:10:01.844Z,9.43
2018-03-21T21:12:29.563Z,7.93
2018-03-21T21:14:57.892Z,7.73
2018-03-21T21:17:25.468Z,7.40
2018-03-21T21:19:54.036Z,8.97
2018-03-21T21:22:22.176Z,9.17
2018-03-21T21:24:49.820Z,6.37
2018-03-21T21:27:18.205Z,5.03
2018-03-21T21:29:45.960Z,7.43
2018-03-21T21:32:13.518Z,9.17
2018-03-21T21:34:41.345Z,8.50
2018-03-21T21:37:10.348Z,8.60
2018-03-21T21:39:38.677Z,4.53
2018-03-21T21:42:06.231Z,5.47
2018-03-21T21:44:34.006Z,6.30
2018-03-21T21:47:01.551Z,12.40
2018-03-21T21:49:29.180Z,6.90
2018-03-21T21:51:57.504Z,3.40
2018-03-21T21:54:25.082Z,4.57
2018-03-21T21:56:52.778Z,9.37
2018-03-21T21:59:21.085Z,8.87
2018-03-21T22:01:48.869Z,9.53
2018-03-21T22:04:16.413Z,8.80
2018-03-21T22:06:44.206Z,6.20
2018-03-21T22:09:11.823Z,6.87
2018-03-21T22:11:39.705Z,6.50
2018-03-21T22:14:07.249Z,8.67
2018-03-21T22:16:34.810Z,7.93
2018-03-21T22:19:02.515Z,9.13
2018-03-21T22:21:30.195Z,9.23
2018-03-21T22:23:58.056Z,7.23
2018-03-21T22:26:25.717Z,12.53
2018-03-21T22:28:53.283Z,9.03
2018-03-21T22:31:20.870Z,6.67
2018-03-21T22:33:48.436Z,6.27
2018-03-21T22:36:15.969Z,7.40
2018-03-21T22:38:43.628Z,9.43
2018-03-21T22:41:11.284Z,7.93
2018-03-21T22:43:38.831Z,11.93
2018-03-21T22:46:06.437Z,8.63
2018-03-21T22:48:34.043Z,4.93
2018-03-21T22:51:01.608Z,7.53
2018-03-21T22:53:29.331Z,8.70
2018-03-21T22:55:56.860Z,9.10
2018-03-21T22:58:25.181Z,6.60
2018-03-21T23:00:52.722Z,6.47
2018-03-21T23:03:20.371Z,7.77
2018-03-21T23:05:48.040Z,10.33
2018-03-21T23:08:15.638Z,7.33
2018-03-21T23:10:44.140Z,8.67
2018-03-21T23:13:11.668Z,13.47
2018-03-21T23:15:39.203Z,8.90
2018-03-21T23:18:06.748Z,9.20
2018-03-21T23:20:34.401Z,9.47
2018-03-21T23:23:01.954Z,10.27
2018-03-21T23:25:30.396Z,10.97
2018-03-21T23:27:58.034Z,10.20
2018-03-21T23:30:25.624Z,9.57
2018-03-21T23:32:53.169Z,14.33
2018-03-21T23:35:20.818Z,14.07
2018-03-21T23:37:48.339Z,12.53
2018-03-21T23:40:16.616Z,12.83
2018-03-21T23:42:44.935Z,12.03
2018-03-21T23:45:12.485Z,17.43
2018-03-21T23:47:40.007Z,14.77
2018-03-21T23:50:08.301Z,17.10
2018-03-21T23:52:35.914Z,11.83
2018-03-21T23:55:03.689Z,13.30
2018-03-21T23:57:31.238Z,13.70
2018-03-21T23:59:58.799Z,15.93
